createdAt,value
2022-10-08T00:00:49.925Z,101315.72
2022-10-08T00:03:18.004Z,101311.72
2022-10-08T00:05:54.370Z,101304.25
2022-10-08T00:08:20.773Z,101300.09
2022-10-08T00:10:59.116Z,101301.00
2022-10-08T00:13:27.229Z,101296.34
2022-10-08T00:15:53.979Z,101293.16
2022-10-08T00:18:21.385Z,101292.78
2022-10-08T00:20:48.470Z,101291.75
2022-10-08T00:23:16.809Z,101285.13
2022-10-08T00:25:44.881Z,101289.69
2022-10-08T00:28:13.634Z,101291.25
2022-10-08T00:30:41.839Z,101283.75
2022-10-08T00:33:10.045Z,101286.28
2022-10-08T00:35:38.629Z,101290.53
2022-10-08T00:38:07.326Z,101284.88
2022-10-08T00:40:45.957Z,101292.38
2022-10-08T00:43:16.775Z,101282.38
2022-10-08T00:45:47.142Z,101288.78
2022-10-08T00:48:25.809Z,101288.13
2022-10-08T00:50:52.469Z,101280.13
2022-10-08T00:53:19.022Z,101290.47
2022-10-08T00:55:45.470Z,101283.19
2022-10-08T00:58:16.984Z,101284.63
2022-10-08T01:00:44.308Z,101288.00
2022-10-08T01:03:10.837Z,101290.75
2022-10-08T01:05:47.565Z,101279.88
2022-10-08T01:08:25.816Z,101276.38
2022-10-08T01:11:14.857Z,101270.19
2022-10-08T01:13:49.841Z,101267.56
2022-10-08T01:16:29.413Z,101270.13
2022-10-08T01:19:35.732Z,101265.81
2022-10-08T01:22:20.199Z,101253.53
2022-10-08T01:25:11.240Z,101249.91
2022-10-08T01:27:50.488Z,101251.63
2022-10-08T01:30:19.024Z,101257.19
2022-10-08T01:32:53.072Z,101246.84
2022-10-08T01:35:29.084Z,101242.84
2022-10-08T01:37:59.598Z,101243.97
2022-10-08T01:40:33.745Z,101242.78
2022-10-08T01:43:01.622Z,101241.00
2022-10-08T01:45:33.157Z,101236.47
2022-10-08T01:48:05.993Z,101236.34
2022-10-08T01:50:44.273Z,101226.34
2022-10-08T01:53:15.324Z,101225.75
2022-10-08T01:55:47.151Z,101224.56
2022-10-08T01:58:21.443Z,101217.44
2022-10-08T02:00:51.025Z,101222.41
2022-10-08T02:03:17.546Z,101216.56
2022-10-08T02:05:49.274Z,101217.66
2022-10-08T02:08:15.981Z,101211.06
2022-10-08T02:10:43.436Z,101217.78
2022-10-08T02:13:10.651Z,101209.00
2022-10-08T02:15:52.044Z,101213.66
2022-10-08T02:18:23.204Z,101216.53
2022-10-08T02:21:08.920Z,101227.13
2022-10-08T02:23:44.531Z,101213.53
2022-10-08T02:26:16.441Z,101214.97
2022-10-08T02:29:02.198Z,101217.41
2022-10-08T02:31:38.445Z,101219.75
2022-10-08T02:34:15.778Z,101214.97
2022-10-08T02:36:45.865Z,101213.69
2022-10-08T02:39:14.657Z,101216.00
2022-10-08T02:41:46.420Z,101220.78
2022-10-08T02:44:18.575Z,101210.44
2022-10-08T02:46:49.819Z,101211.84
2022-10-08T02:49:24.123Z,101214.56
2022-10-08T02:51:53.328Z,101207.72
2022-10-08T02:54:22.500Z,101201.28
2022-10-08T02:56:59.253Z,101195.03
2022-10-08T02:59:26.603Z,101197.78
2022-10-08T03:02:04.324Z,101201.75
2022-10-08T03:04:50.485Z,101200.34
2022-10-08T03:07:17.929Z,101194.00
2022-10-08T03:09:47.390Z,101195.81
2022-10-08T03:12:13.894Z,101191.16
2022-10-08T03:14:43.640Z,101199.44
2022-10-08T03:17:14.305Z,101198.91
2022-10-08T03:19:40.728Z,101200.59
2022-10-08T03:22:07.831Z,101202.41
2022-10-08T03:24:35.625Z,101214.44
2022-10-08T03:27:02.104Z,101224.28
2022-10-08T03:29:28.496Z,101230.09
2022-10-08T03:31:54.922Z,101229.94
2022-10-08T03:34:21.573Z,101227.88
2022-10-08T03:36:47.963Z,101226.97
2022-10-08T03:39:14.434Z,101228.38
2022-10-08T03:41:40.842Z,101225.50
2022-10-08T03:44:09.330Z,101220.97
2022-10-08T03:46:35.851Z,101229.66
2022-10-08T03:49:02.339Z,101230.94
2022-10-08T03:51:28.790Z,101227.56
2022-10-08T03:53:55.287Z,101227.47
2022-10-08T03:56:25.563Z,101231.47
2022-10-08T03:58:54.955Z,101233.56
2022-10-08T04:01:21.890Z,101228.16
2022-10-08T04:03:48.415Z,101229.53
2022-10-08T04:06:15.064Z,101225.94
2022-10-08T04:08:41.862Z,101224.25
2022-10-08T04:11:10.876Z,101227.53
2022-10-08T04:13:37.856Z,101228.13
2022-10-08T04:16:07.618Z,101227.25
2022-10-08T04:18:34.991Z,101225.06
2022-10-08T04:21:04.625Z,101222.22
2022-10-08T04:23:32.872Z,101223.72
2022-10-08T04:25:59.664Z,101220.31
2022-10-08T04:28:26.175Z,101215.00
2022-10-08T04:30:59.972Z,101216.16
2022-10-08T04:33:27.745Z,101220.28
2022-10-08T04:35:59.926Z,101217.31
2022-10-08T04:38:27.363Z,101213.97
2022-10-08T04:41:08.466Z,101214.91
2022-10-08T04:43:36.309Z,101216.19
2022-10-08T04:46:04.370Z,101214.19
2022-10-08T04:48:31.208Z,101217.94
2022-10-08T04:51:04.090Z,101212.06
2022-10-08T04:53:32.662Z,101217.34
2022-10-08T04:56:12.039Z,101215.66
2022-10-08T04:58:39.299Z,101216.94
2022-10-08T05:01:07.758Z,101212.53
2022-10-08T05:03:42.484Z,101213.31
2022-10-08T05:06:10.218Z,101211.53
2022-10-08T05:08:36.967Z,101204.28
2022-10-08T05:11:04.930Z,101208.69
2022-10-08T05:13:31.712Z,101206.09
2022-10-08T05:16:12.675Z,101204.81
2022-10-08T05:18:41.279Z,101198.50
2022-10-08T05:21:10.474Z,101210.28
2022-10-08T05:23:37.125Z,101203.84
2022-10-08T05:26:35.896Z,101196.97
2022-10-08T05:29:11.082Z,101210.28
2022-10-08T05:31:38.590Z,101210.03
2022-10-08T05:34:05.217Z,101212.63
2022-10-08T05:36:33.268Z,101209.91
2022-10-08T05:39:01.054Z,101205.09
2022-10-08T05:41:32.401Z,101210.78
2022-10-08T05:44:01.928Z,101207.53
2022-10-08T05:46:29.818Z,101202.38
2022-10-08T05:48:58.408Z,101197.84
2022-10-08T05:51:25.529Z,101209.00
2022-10-08T05:53:54.527Z,101208.66
2022-10-08T05:56:23.137Z,101212.22
2022-10-08T05:58:50.926Z,101212.75
2022-10-08T06:01:23.102Z,101209.25
2022-10-08T06:03:50.880Z,101213.16
2022-10-08T06:06:17.819Z,101221.97
2022-10-08T06:08:44.582Z,101227.50
2022-10-08T06:11:11.052Z,101222.41
2022-10-08T06:13:37.632Z,101228.38
2022-10-08T06:16:09.741Z,101229.66
2022-10-08T06:18:39.485Z,101230.41
2022-10-08T06:21:12.037Z,101225.88
2022-10-08T06:23:40.108Z,101235.97
2022-10-08T06:26:09.343Z,101237.13
2022-10-08T06:28:38.345Z,101241.00
2022-10-08T06:31:06.948Z,101240.50
2022-10-08T06:33:34.136Z,101247.53
2022-10-08T06:36:12.935Z,101243.41
2022-10-08T06:38:39.353Z,101248.03
2022-10-08T06:41:05.776Z,101240.56
2022-10-08T06:43:32.228Z,101245.47
2022-10-08T06:46:00.172Z,101247.31
2022-10-08T06:48:27.474Z,101252.47
2022-10-08T06:51:21.029Z,101257.53
2022-10-08T06:53:53.412Z,101252.84
2022-10-08T06:56:20.125Z,101252.47
2022-10-08T06:58:47.493Z,101251.41
2022-10-08T07:01:17.271Z,101254.75
2022-10-08T07:03:44.166Z,101256.06
2022-10-08T07:06:12.181Z,101254.22
2022-10-08T07:08:39.472Z,101260.69
2022-10-08T07:11:11.856Z,101260.25
2022-10-08T07:13:38.835Z,101261.94
2022-10-08T07:16:19.616Z,101258.66
2022-10-08T07:18:48.345Z,101256.72
2022-10-08T07:21:16.666Z,101260.41
2022-10-08T07:23:43.748Z,101264.88
2022-10-08T07:26:19.100Z,101253.06
2022-10-08T07:28:55.071Z,101256.16
2022-10-08T07:31:24.008Z,101256.75
2022-10-08T07:33:50.455Z,101261.75
2022-10-08T07:36:19.804Z,101271.94
2022-10-08T07:38:46.338Z,101271.94
2022-10-08T07:41:12.937Z,101261.81
2022-10-08T07:43:43.149Z,101264.56
2022-10-08T07:46:12.866Z,101263.47
2022-10-08T07:48:39.657Z,101265.84
2022-10-08T07:51:20.761Z,101271.31
2022-10-08T07:53:47.665Z,101264.25
2022-10-08T07:56:17.200Z,101275.16
2022-10-08T07:58:44.366Z,101273.69
2022-10-08T08:01:15.481Z,101276.19
2022-10-08T08:03:42.198Z,101278.09
2022-10-08T08:06:12.133Z,101267.69
2022-10-08T08:08:40.650Z,101271.75
2022-10-08T08:11:09.056Z,101279.81
2022-10-08T08:13:37.667Z,101279.91
2022-10-08T08:16:09.574Z,101276.56
2022-10-08T08:18:38.885Z,101277.75
2022-10-08T08:21:11.410Z,101279.44
2022-10-08T08:23:43.800Z,101279.56
2022-10-08T08:26:19.761Z,101280.44
2022-10-08T08:28:51.778Z,101276.75
2022-10-08T08:31:23.937Z,101274.25
2022-10-08T08:33:52.997Z,101281.63
2022-10-08T08:36:20.624Z,101282.41
2022-10-08T08:38:47.040Z,101286.13
2022-10-08T08:41:31.295Z,101282.06
2022-10-08T08:44:08.514Z,101278.28
2022-10-08T08:46:40.944Z,101279.38
2022-10-08T08:49:24.533Z,101284.44
2022-10-08T08:51:52.501Z,101283.16
2022-10-08T08:54:19.032Z,101276.69
2022-10-08T08:56:46.347Z,101275.53
2022-10-08T08:59:35.605Z,101274.25
2022-10-08T09:02:12.276Z,101270.19
2022-10-08T09:04:48.080Z,101270.19
2022-10-08T09:07:21.943Z,101265.63
2022-10-08T09:09:52.585Z,101270.25
2022-10-08T09:12:23.940Z,101265.59
2022-10-08T09:14:54.545Z,101271.81
2022-10-08T09:17:34.303Z,101273.94
2022-10-08T09:20:01.430Z,101273.53
2022-10-08T09:22:36.401Z,101267.53
2022-10-08T09:25:15.325Z,101266.69
2022-10-08T09:27:51.076Z,101260.63
2022-10-08T09:30:35.456Z,101262.91
2022-10-08T09:33:19.194Z,101262.16
2022-10-08T09:35:51.115Z,101260.63
2022-10-08T09:38:29.406Z,101256.25
2022-10-08T09:41:28.558Z,101263.31
2022-10-08T09:44:09.838Z,101259.13
2022-10-08T09:46:36.277Z,101264.41
2022-10-08T09:49:31.962Z,101253.28
2022-10-08T09:52:04.696Z,101256.09
2022-10-08T09:54:36.166Z,101253.56
2022-10-08T09:57:03.169Z,101245.91
2022-10-08T09:59:35.944Z,101248.25
2022-10-08T10:02:07.674Z,101251.13
2022-10-08T10:04:37.207Z,101252.91
2022-10-08T10:07:05.541Z,101244.84
2022-10-08T10:09:40.012Z,101247.13
2022-10-08T10:12:18.745Z,101250.25
2022-10-08T10:15:17.192Z,101242.75
2022-10-08T10:17:54.953Z,101247.41
2022-10-08T10:20:29.246Z,101237.88
2022-10-08T10:23:10.833Z,101241.25
2022-10-08T10:25:46.338Z,101233.94
2022-10-08T10:28:26.543Z,101230.03
2022-10-08T10:31:05.262Z,101219.97
2022-10-08T10:33:59.240Z,101212.13
2022-10-08T10:36:31.357Z,101214.91
2022-10-08T10:39:17.171Z,101208.84
2022-10-08T10:41:52.486Z,101214.53
2022-10-08T10:44:48.911Z,101203.44
2022-10-08T10:47:17.222Z,101211.47
2022-10-08T10:49:43.998Z,101204.56
2022-10-08T10:52:43.998Z,101200.34
2022-10-08T10:55:22.696Z,101194.69
2022-10-08T10:58:30.792Z,101192.19
2022-10-08T11:01:06.493Z,101181.56
2022-10-08T11:04:08.125Z,101180.56
2022-10-08T11:07:00.797Z,101182.84
2022-10-08T11:09:52.977Z,101178.19
2022-10-08T11:12:21.937Z,101170.66
2022-10-08T11:15:01.273Z,101168.16
2022-10-08T11:17:39.349Z,101166.59
2022-10-08T11:20:46.777Z,101168.84
2022-10-08T11:23:21.682Z,101167.66
2022-10-08T11:26:22.344Z,101165.91
2022-10-08T11:29:14.471Z,101167.47
2022-10-08T11:31:50.785Z,101157.94
2022-10-08T11:34:22.507Z,101154.44
2022-10-08T11:36:58.384Z,101151.06
2022-10-08T11:39:40.356Z,101147.88
2022-10-08T11:42:48.884Z,101147.59
2022-10-08T11:45:31.303Z,101143.84
2022-10-08T11:48:00.372Z,101141.31
2022-10-08T11:50:33.960Z,101142.94
2022-10-08T11:53:20.447Z,101132.44
2022-10-08T11:55:55.646Z,101136.06
2022-10-08T11:58:31.653Z,101129.59
2022-10-08T12:01:03.282Z,101121.44
2022-10-08T12:03:33.592Z,101120.00
2022-10-08T12:06:15.428Z,101112.16
2022-10-08T12:08:55.556Z,101116.88
2022-10-08T12:11:39.891Z,101107.25
2022-10-08T12:14:12.690Z,101108.31
2022-10-08T12:17:05.026Z,101096.97
2022-10-08T12:19:37.102Z,101098.34
2022-10-08T12:22:16.365Z,101087.03
2022-10-08T12:24:50.177Z,101083.94
2022-10-08T12:27:16.867Z,101081.59
2022-10-08T12:30:12.921Z,101076.47
2022-10-08T12:32:39.311Z,101073.66
2022-10-08T12:35:20.240Z,101073.25
2022-10-08T12:38:01.473Z,101063.44
2022-10-08T12:40:36.120Z,101055.19
2022-10-08T12:43:35.646Z,101058.13
2022-10-08T12:46:11.598Z,101062.56
2022-10-08T12:48:43.033Z,101055.13
2022-10-08T12:51:19.024Z,101052.72
2022-10-08T12:53:46.708Z,101049.50
2022-10-08T12:56:22.745Z,101043.00
2022-10-08T12:58:49.842Z,101046.56
2022-10-08T13:01:20.217Z,101036.16
2022-10-08T13:03:47.344Z,101034.41
2022-10-08T13:06:23.594Z,101035.38
2022-10-08T13:08:50.064Z,101041.19
2022-10-08T13:11:17.062Z,101032.97
2022-10-08T13:13:51.799Z,101039.94
2022-10-08T13:16:18.283Z,101025.53
2022-10-08T13:18:48.166Z,101027.19
2022-10-08T13:21:34.606Z,101033.31
2022-10-08T13:24:13.090Z,101016.50
2022-10-08T13:26:49.664Z,101020.19
2022-10-08T13:29:21.905Z,101021.72
2022-10-08T13:32:26.777Z,101029.13
2022-10-08T13:34:59.374Z,101020.84
2022-10-08T13:37:30.206Z,101012.13
2022-10-08T13:39:58.085Z,101018.00
2022-10-08T13:42:31.209Z,101015.84
2022-10-08T13:44:59.940Z,101011.25
2022-10-08T13:47:27.928Z,101012.75
2022-10-08T13:50:00.341Z,101018.38
2022-10-08T13:52:28.360Z,101015.53
2022-10-08T13:54:59.854Z,101010.97
2022-10-08T13:57:26.384Z,101016.69
2022-10-08T13:59:52.818Z,101012.09
2022-10-08T14:02:19.332Z,101019.75
2022-10-08T14:04:46.728Z,101016.34
2022-10-08T14:07:25.060Z,101012.41
2022-10-08T14:09:53.004Z,101016.63
2022-10-08T14:12:23.489Z,101010.09
2022-10-08T14:14:49.893Z,101007.31
2022-10-08T14:17:16.337Z,101013.81
2022-10-08T14:19:42.759Z,101015.63
2022-10-08T14:22:10.931Z,101013.81
2022-10-08T14:24:37.429Z,101013.81
2022-10-08T14:27:08.216Z,101004.66
2022-10-08T14:29:35.278Z,101015.00
2022-10-08T14:32:02.690Z,101006.13
2022-10-08T14:34:29.159Z,101007.84
2022-10-08T14:36:55.793Z,101016.69
2022-10-08T14:39:22.702Z,101005.06
2022-10-08T14:41:49.166Z,101004.88
2022-10-08T14:44:16.784Z,101004.66
2022-10-08T14:46:44.128Z,101004.41
2022-10-08T14:49:10.725Z,101009.59
2022-10-08T14:51:39.073Z,101010.81
2022-10-08T14:54:09.877Z,101010.53
2022-10-08T14:56:36.277Z,101010.41
2022-10-08T14:59:02.841Z,101008.97
2022-10-08T15:01:31.732Z,101006.16
2022-10-08T15:03:58.171Z,100999.72
2022-10-08T15:06:24.733Z,101005.72
2022-10-08T15:08:51.113Z,101000.94
2022-10-08T15:11:17.517Z,101002.47
2022-10-08T15:13:43.896Z,101002.47
2022-10-08T15:16:14.213Z,100997.22
2022-10-08T15:18:40.860Z,101002.47
2022-10-08T15:21:07.424Z,101000.53
2022-10-08T15:23:34.045Z,100998.78
2022-10-08T15:26:10.169Z,100997.91
2022-10-08T15:28:37.858Z,101005.47
2022-10-08T15:31:08.874Z,101001.66
2022-10-08T15:33:39.515Z,100994.53
2022-10-08T15:36:18.936Z,101003.06
2022-10-08T15:38:46.687Z,101001.28
2022-10-08T15:41:17.381Z,101005.63
2022-10-08T15:43:43.885Z,101010.00
2022-10-08T15:46:12.635Z,101008.03
2022-10-08T15:48:39.229Z,101007.06
2022-10-08T15:51:06.385Z,101002.50
2022-10-08T15:53:35.274Z,101009.38
2022-10-08T15:56:02.141Z,101008.41
2022-10-08T15:58:49.879Z,101007.44
2022-10-08T16:01:19.937Z,101009.91
2022-10-08T16:03:47.838Z,101014.16
2022-10-08T16:06:17.991Z,101021.00
2022-10-08T16:08:47.427Z,101017.13
2022-10-08T16:11:14.012Z,101010.84
2022-10-08T16:13:41.004Z,101023.69
2022-10-08T16:16:11.396Z,101027.91
2022-10-08T16:18:40.561Z,101033.78
2022-10-08T16:21:07.342Z,101036.31
2022-10-08T16:23:37.119Z,101031.75
2022-10-08T16:26:05.896Z,101040.25
2022-10-08T16:28:35.069Z,101035.84
2022-10-08T16:31:02.178Z,101040.25
2022-10-08T16:33:29.074Z,101038.47
2022-10-08T16:35:56.200Z,101040.13
2022-10-08T16:38:23.057Z,101040.78
2022-10-08T16:40:49.532Z,101043.91
2022-10-08T16:43:15.929Z,101051.41
2022-10-08T16:45:42.394Z,101050.28
2022-10-08T16:48:08.839Z,101056.91
2022-10-08T16:50:40.152Z,101050.47
2022-10-08T16:53:10.471Z,101060.78
2022-10-08T16:55:38.372Z,101062.31
2022-10-08T16:58:05.936Z,101059.44
2022-10-08T17:00:35.197Z,101062.81
2022-10-08T17:03:01.715Z,101058.28
2022-10-08T17:05:28.377Z,101074.81
2022-10-08T17:07:55.111Z,101070.38
2022-10-08T17:10:21.592Z,101074.59
2022-10-08T17:12:48.270Z,101077.06
2022-10-08T17:15:14.898Z,101071.69
2022-10-08T17:17:41.382Z,101074.13
2022-10-08T17:20:08.293Z,101071.44
2022-10-08T17:22:34.719Z,101085.31
2022-10-08T17:25:01.125Z,101074.78
2022-10-08T17:27:27.519Z,101081.66
2022-10-08T17:29:53.934Z,101091.13
2022-10-08T17:32:20.362Z,101085.63
2022-10-08T17:34:46.781Z,101093.22
2022-10-08T17:37:13.165Z,101093.75
2022-10-08T17:39:39.573Z,101092.72
2022-10-08T17:42:07.338Z,101099.56
2022-10-08T17:44:34.320Z,101101.03
2022-10-08T17:47:00.757Z,101099.22
2022-10-08T17:49:28.192Z,101100.84
2022-10-08T17:51:55.365Z,101095.25
2022-10-08T17:54:22.549Z,101092.47
2022-10-08T17:56:49.156Z,101101.78
2022-10-08T17:59:17.699Z,101098.81
2022-10-08T18:01:45.745Z,101109.44
2022-10-08T18:04:14.178Z,101108.00
2022-10-08T18:06:42.322Z,101113.84
2022-10-08T18:09:12.702Z,101111.22
2022-10-08T18:11:42.222Z,101115.47
2022-10-08T18:14:09.251Z,101112.06
2022-10-08T18:16:36.005Z,101108.44
2022-10-08T18:19:08.380Z,101111.13
2022-10-08T18:21:37.940Z,101121.06
2022-10-08T18:24:04.848Z,101118.50
2022-10-08T18:26:35.512Z,101119.06
2022-10-08T18:29:05.118Z,101118.34
2022-10-08T18:31:33.283Z,101124.66
2022-10-08T18:34:02.125Z,101123.84
2022-10-08T18:36:30.852Z,101123.28
2022-10-08T18:38:59.772Z,101129.06
2022-10-08T18:41:38.900Z,101133.03
2022-10-08T18:44:06.563Z,101138.97
2022-10-08T18:46:36.972Z,101138.03
2022-10-08T18:49:04.955Z,101143.09
2022-10-08T18:51:32.218Z,101146.53
2022-10-08T18:53:59.429Z,101145.53
2022-10-08T18:56:30.321Z,101148.94
2022-10-08T18:58:56.955Z,101139.94
2022-10-08T19:01:25.739Z,101138.31
2022-10-08T19:03:54.505Z,101149.66
2022-10-08T19:06:23.171Z,101149.19
2022-10-08T19:08:49.690Z,101141.16
2022-10-08T19:11:16.020Z,101144.00
2022-10-08T19:13:42.864Z,101152.72
2022-10-08T19:16:13.463Z,101145.78
2022-10-08T19:18:44.803Z,101158.81
2022-10-08T19:21:13.263Z,101154.50
2022-10-08T19:23:40.264Z,101149.38
2022-10-08T19:26:07.033Z,101160.63
2022-10-08T19:28:36.821Z,101161.25
2022-10-08T19:31:23.585Z,101155.81
2022-10-08T19:33:51.993Z,101156.66
2022-10-08T19:36:19.652Z,101168.19
2022-10-08T19:38:57.779Z,101172.47
2022-10-08T19:41:26.773Z,101171.41
2022-10-08T19:43:54.569Z,101177.34
2022-10-08T19:46:21.639Z,101181.63
2022-10-08T19:48:54.051Z,101180.75
2022-10-08T19:51:21.653Z,101184.47
2022-10-08T19:53:49.033Z,101179.69
2022-10-08T19:56:16.731Z,101187.69
2022-10-08T19:58:48.428Z,101182.47
2022-10-08T20:01:21.132Z,101181.69
2022-10-08T20:03:48.199Z,101184.41
2022-10-08T20:06:24.364Z,101187.69
2022-10-08T20:08:57.253Z,101188.34
2022-10-08T20:11:24.143Z,101183.13
2022-10-08T20:13:52.793Z,101188.34
2022-10-08T20:16:22.473Z,101188.25
2022-10-08T20:18:55.047Z,101184.75
2022-10-08T20:21:22.029Z,101196.97
2022-10-08T20:23:48.763Z,101199.28
2022-10-08T20:26:19.742Z,101193.00
2022-10-08T20:28:48.001Z,101197.03
2022-10-08T20:31:27.111Z,101189.56
2022-10-08T20:34:04.975Z,101193.28
2022-10-08T20:36:31.725Z,101193.59
2022-10-08T20:38:58.617Z,101202.72
2022-10-08T20:41:30.710Z,101203.22
2022-10-08T20:44:02.909Z,101197.28
2022-10-08T20:46:30.074Z,101207.94
2022-10-08T20:48:56.689Z,101202.72
2022-10-08T20:51:28.066Z,101200.13
2022-10-08T20:53:56.980Z,101201.81
2022-10-08T20:56:24.225Z,101205.41
2022-10-08T20:58:51.095Z,101205.41
2022-10-08T21:01:19.865Z,101205.34
2022-10-08T21:03:47.349Z,101207.94
2022-10-08T21:06:17.038Z,101207.00
2022-10-08T21:08:46.132Z,101213.78
2022-10-08T21:11:15.508Z,101211.38
2022-10-08T21:13:42.728Z,101214.78
2022-10-08T21:16:18.506Z,101215.50
2022-10-08T21:18:48.984Z,101218.09
2022-10-08T21:21:16.358Z,101218.81
2022-10-08T21:23:42.852Z,101208.97
2022-10-08T21:26:18.093Z,101214.00
2022-10-08T21:28:46.205Z,101212.19
2022-10-08T21:31:13.789Z,101216.63
2022-10-08T21:33:42.375Z,101212.19
2022-10-08T21:36:12.290Z,101220.59
2022-10-08T21:38:38.870Z,101223.13
2022-10-08T21:41:12.436Z,101215.38
2022-10-08T21:43:44.511Z,101220.41
2022-10-08T21:46:13.674Z,101223.84
2022-10-08T21:48:40.372Z,101216.19
2022-10-08T21:51:13.125Z,101226.31
2022-10-08T21:53:44.221Z,101227.03
2022-10-08T21:56:12.688Z,101223.59
2022-10-08T21:58:41.779Z,101231.44
2022-10-08T22:01:18.442Z,101232.25
2022-10-08T22:03:44.872Z,101223.53
2022-10-08T22:06:11.445Z,101233.84
2022-10-08T22:08:37.876Z,101225.91
2022-10-08T22:11:05.881Z,101233.31
2022-10-08T22:13:32.306Z,101224.13
2022-10-08T22:16:01.581Z,101220.31
2022-10-08T22:18:30.561Z,101223.22
2022-10-08T22:20:57.017Z,101218.81
2022-10-08T22:23:23.440Z,101216.41
2022-10-08T22:25:57.780Z,101208.56
2022-10-08T22:28:25.072Z,101219.59
2022-10-08T22:30:52.093Z,101212.50
2022-10-08T22:33:20.036Z,101205.56
2022-10-08T22:35:46.985Z,101213.59
2022-10-08T22:38:13.670Z,101208.50
2022-10-08T22:40:40.056Z,101214.19
2022-10-08T22:43:06.601Z,101211.59
2022-10-08T22:45:40.224Z,101217.50
2022-10-08T22:48:07.360Z,101207.28
2022-10-08T22:50:35.587Z,101212.78
2022-10-08T22:53:02.280Z,101211.41
2022-10-08T22:55:29.480Z,101221.59
2022-10-08T22:57:56.509Z,101222.91
2022-10-08T23:00:23.000Z,101223.81
2022-10-08T23:02:49.926Z,101218.50
2022-10-08T23:05:16.716Z,101225.41
2022-10-08T23:07:43.106Z,101222.78
2022-10-08T23:10:09.613Z,101208.88
2022-10-08T23:12:35.996Z,101212.38
2022-10-08T23:15:02.432Z,101214.97
2022-10-08T23:17:28.899Z,101219.41
2022-10-08T23:19:55.288Z,101222.78
2022-10-08T23:22:21.697Z,101227.00
2022-10-08T23:24:48.083Z,101223.50
2022-10-08T23:27:14.510Z,101224.41
2022-10-08T23:29:41.021Z,101226.22
2022-10-08T23:32:07.534Z,101228.13
2022-10-08T23:34:33.965Z,101224.41
2022-10-08T23:37:00.405Z,101227.81
2022-10-08T23:39:26.874Z,101232.03
2022-10-08T23:41:53.313Z,101231.63
2022-10-08T23:44:19.936Z,101220.59
2022-10-08T23:46:46.336Z,101227.34
2022-10-08T23:49:12.884Z,101221.81
2022-10-08T23:51:39.326Z,101223.22
2022-10-08T23:54:06.185Z,101226.72
2022-10-08T23:56:32.633Z,101217.78
2022-10-08T23:58:59.317Z,101216.78
